Time;durP1;ratioP1;P1;durP2;ratioP2;P2;SDS_P1;SDS_P2;PMS_P1;PMS_P2;Temp;Humidity;BMP_temperature;BMP_pressure;BME280_temperature;BME280_humidity;BME280_pressure;Samples;Min_cycle;Max_cycle;Signal;HPM_P1;HPM_P2
2024/01/17 00:03:06;;;;;;;22.42;12.13;;;;;;;-1.32;68.73;99448.16;4214851;28;20080;-65
2024/01/17 00:05:11;;;;;;;22.70;13.02;;;;;;;-1.29;69.15;99443.19;4207957;28;20039;-65
2024/01/17 00:07:13;;;;;;;21.27;13.05;;;;;;;-1.25;69.37;99434.88;4204290;28;20112;-65
2024/01/17 00:09:18;;;;;;;22.33;11.98;;;;;;;-1.18;68.80;99426.69;4195717;28;20080;-65
2024/01/17 00:11:21;;;;;;;24.73;14.70;;;;;;;-1.16;69.22;99431.84;4200964;28;20495;-65
2024/01/17 00:13:23;;;;;;;26.80;16.75;;;;;;;-1.16;68.15;99421.66;4211219;28;20082;-65
2024/01/17 00:15:26;;;;;;;26.35;14.63;;;;;;;-1.19;68.49;99412.19;4208011;28;20051;-65
2024/01/17 00:17:29;;;;;;;29.73;14.95;;;;;;;-1.19;69.29;99412.19;4205346;28;20052;-65
2024/01/17 00:19:32;;;;;;;27.17;14.57;;;;;;;-1.21;68.07;99401.06;4219945;28;20036;-65
2024/01/17 00:21:35;;;;;;;24.40;13.88;;;;;;;-1.20;68.09;99391.72;4222704;28;20036;-65
2024/01/17 00:23:38;;;;;;;24.27;15.13;;;;;;;-1.20;68.69;99377.28;4212217;28;20066;-65
2024/01/17 00:25:43;;;;;;;24.48;15.65;;;;;;;-1.20;68.84;99387.47;4214929;28;20137;-65
2024/01/17 00:27:49;;;;;;;27.90;16.60;;;;;;;-1.18;69.00;99396.09;4201617;28;20032;-66
2024/01/17 00:29:56;;;;;;;30.10;17.25;;;;;;;-1.12;68.32;99404.00;4195846;28;20051;-66
2024/01/17 00:32:00;;;;;;;27.67;15.98;;;;;;;-1.07;68.34;99404.19;4208881;28;20047;-65
2024/01/17 00:34:02;;;;;;;27.77;17.42;;;;;;;-1.15;68.79;99391.13;4209208;28;20079;-65
2024/01/17 00:36:08;;;;;;;28.60;17.30;;;;;;;-1.15;68.92;99396.22;4202151;28;20118;-65
2024/01/17 00:38:11;;;;;;;29.33;18.38;;;;;;;-1.14;68.31;99402.19;4214493;28;20054;-65
2024/01/17 00:40:14;;;;;;;30.38;17.55;;;;;;;-1.24;69.28;99391.59;4212733;28;20040;-65
2024/01/17 00:42:18;;;;;;;28.17;16.92;;;;;;;-1.35;68.42;99386.81;4210000;28;20066;-65
2024/01/17 00:44:21;;;;;;;30.27;17.05;;;;;;;-1.43;69.84;99381.38;4214150;28;20035;-65
2024/01/17 00:46:24;;;;;;;26.75;16.95;;;;;;;-1.39;68.80;99384.94;4212724;28;20093;-65
2024/01/17 00:48:27;;;;;;;32.33;17.48;;;;;;;-1.30;69.21;99390.44;4207732;28;20085;-65
2024/01/17 00:50:30;;;;;;;28.25;17.17;;;;;;;-1.25;68.53;99387.28;4209482;28;20052;-65
2024/01/17 00:52:33;;;;;;;33.90;18.42;;;;;;;-1.24;67.82;99377.97;4206702;28;20040;-65
2024/01/17 00:54:36;;;;;;;28.08;16.80;;;;;;;-1.21;68.34;99385.75;4207139;28;20032;-65
2024/01/17 00:56:40;;;;;;;29.23;17.58;;;;;;;-1.20;68.66;99372.19;4214270;28;20032;-65
2024/01/17 00:58:44;;;;;;;32.45;19.15;;;;;;;-1.26;68.38;99380.44;4199732;28;20032;-65
2024/01/17 01:00:47;;;;;;;30.80;20.08;;;;;;;-1.33;68.13;99375.91;4188049;28;20142;-65
2024/01/17 01:02:51;;;;;;;31.55;17.55;;;;;;;-1.44;68.05;99385.59;4214290;28;20028;-65
2024/01/17 01:04:54;;;;;;;29.30;17.80;;;;;;;-1.44;68.24;99383.06;4215528;28;20130;-66
2024/01/17 01:06:57;;;;;;;42.30;19.02;;;;;;;-1.42;68.34;99384.00;4213332;28;20036;-66
2024/01/17 01:09:00;;;;;;;32.97;18.83;;;;;;;-1.43;67.79;99386.47;4214215;28;20052;-66
2024/01/17 01:11:04;;;;;;;36.35;19.67;;;;;;;-1.45;68.60;99380.44;4212770;28;20047;-66
2024/01/17 01:13:07;;;;;;;28.20;16.80;;;;;;;-1.44;68.15;99372.84;4214342;28;20050;-66
2024/01/17 01:15:11;;;;;;;31.67;16.83;;;;;;;-1.39;67.54;99374.75;4212786;28;20486;-66
2024/01/17 01:17:14;;;;;;;28.95;15.93;;;;;;;-1.36;67.63;99377.44;4201786;28;20032;-66
2024/01/17 01:19:17;;;;;;;23.20;15.20;;;;;;;-1.33;67.02;99364.81;4214064;28;20486;-66
2024/01/17 01:21:19;;;;;;;25.48;16.00;;;;;;;-1.31;66.46;99358.13;4210902;28;20036;-66
2024/01/17 01:23:24;;;;;;;24.80;16.23;;;;;;;-1.35;67.52;99363.88;4214651;28;20126;-67
2024/01/17 01:25:28;;;;;;;27.05;15.00;;;;;;;-1.38;66.90;99356.09;4214179;28;20105;-65
2024/01/17 01:27:30;;;;;;;28.23;16.20;;;;;;;-1.37;67.12;99350.19;4214590;28;20093;-65
2024/01/17 01:29:33;;;;;;;22.08;14.75;;;;;;;-1.41;67.51;99352.59;4214091;28;20036;-65
2024/01/17 01:31:36;;;;;;;31.83;16.10;;;;;;;-1.49;66.85;99353.97;4204339;28;20032;-66
2024/01/17 01:33:39;;;;;;;28.35;18.25;;;;;;;-1.50;67.96;99354.75;4213200;28;20128;-66
2024/01/17 01:35:42;;;;;;;27.75;16.33;;;;;;;-1.50;67.87;99339.47;4211459;28;20051;-65
2024/01/17 01:37:45;;;;;;;31.13;17.98;;;;;;;-1.42;66.72;99343.22;4212051;28;20036;-65
2024/01/17 01:39:48;;;;;;;33.13;18.35;;;;;;;-1.39;67.60;99346.69;4212976;28;20097;-66
2024/01/17 01:41:51;;;;;;;28.55;16.10;;;;;;;-1.40;66.28;99338.19;4208096;28;20513;-66
2024/01/17 01:43:54;;;;;;;26.52;15.05;;;;;;;-1.34;66.53;99335.00;4211336;28;20555;-65
2024/01/17 01:46:17;;;;;;;25.35;16.48;;;;;;;-1.32;66.70;99333.41;4215736;28;20420;-66
2024/01/17 01:48:21;;;;;;;30.45;16.63;;;;;;;-1.31;66.46;99328.38;4213574;28;20042;-65
2024/01/17 01:50:25;;;;;;;23.80;14.75;;;;;;;-1.32;66.59;99320.66;4211802;28;20039;-66
2024/01/17 01:52:28;;;;;;;30.92;15.85;;;;;;;-1.43;67.72;99313.44;4211354;28;20032;-66
2024/01/17 01:54:31;;;;;;;24.70;16.38;;;;;;;-1.40;68.03;99310.16;4213809;28;20478;-66
2024/01/17 01:56:35;;;;;;;22.20;13.45;;;;;;;-1.43;67.31;99307.44;4212398;28;20040;-66
2024/01/17 01:58:43;;;;;;;26.70;14.93;;;;;;;-1.44;67.96;99305.72;4213492;28;20073;-65
2024/01/17 02:00:47;;;;;;;27.45;15.23;;;;;;;-1.45;68.09;99309.06;4212636;28;20033;-65
2024/01/17 02:02:50;;;;;;;31.80;15.20;;;;;;;-1.45;67.89;99296.31;4208449;28;20070;-66
2024/01/17 02:04:54;;;;;;;25.63;14.02;;;;;;;-1.44;67.92;99298.94;4210371;28;20036;-65
2024/01/17 02:07:01;;;;;;;22.15;13.05;;;;;;;-1.49;67.19;99297.00;4210460;28;20126;-65
2024/01/17 02:09:04;;;;;;;22.83;13.77;;;;;;;-1.51;67.96;99288.41;4206512;28;20051;-65
2024/01/17 02:11:08;;;;;;;24.05;14.18;;;;;;;-1.51;68.07;99291.81;4206175;28;20474;-65
2024/01/17 02:13:11;;;;;;;24.23;14.80;;;;;;;-1.49;68.00;99281.69;4208982;28;20047;-65
2024/01/17 02:15:15;;;;;;;29.65;15.30;;;;;;;-1.43;67.63;99292.16;4209896;28;20135;-66
2024/01/17 02:17:16;;;;;;;24.77;14.48;;;;;;;-1.37;67.44;99278.81;4214130;28;20040;-66
2024/01/17 02:19:22;;;;;;;27.25;14.95;;;;;;;-1.38;66.73;99280.50;4214362;28;20032;-66
2024/01/17 02:21:26;;;;;;;25.40;15.57;;;;;;;-1.41;67.90;99271.03;4210048;28;20040;-66
2024/01/17 02:23:29;;;;;;;28.63;16.17;;;;;;;-1.44;67.96;99270.91;4211323;28;20076;-67
2024/01/17 02:25:34;;;;;;;20.55;13.07;;;;;;;-1.50;68.07;99268.09;4194813;28;20082;-66
2024/01/17 02:27:38;;;;;;;26.25;14.60;;;;;;;-1.43;67.33;99266.66;4210686;28;20078;-66
2024/01/17 02:29:45;;;;;;;24.83;15.97;;;;;;;-1.35;67.27;99254.25;4212368;28;20055;-66
2024/01/17 02:31:48;;;;;;;28.08;15.30;;;;;;;-1.31;67.17;99254.44;4207567;28;20036;-66
2024/01/17 02:33:51;;;;;;;32.03;14.98;;;;;;;-1.32;66.98;99246.75;4212193;28;20035;-66
2024/01/17 02:35:55;;;;;;;27.30;15.25;;;;;;;-1.30;67.29;99234.91;4211952;28;20043;-67
2024/01/17 02:37:58;;;;;;;25.20;14.95;;;;;;;-1.25;67.40;99228.34;4211838;28;20052;-67
2024/01/17 02:40:01;;;;;;;21.95;14.52;;;;;;;-1.18;66.19;99220.13;4213163;28;20044;-67
2024/01/17 02:42:06;;;;;;;26.55;14.60;;;;;;;-1.14;67.00;99221.13;4207191;28;20050;-67
2024/01/17 02:44:09;;;;;;;26.75;16.05;;;;;;;-1.09;66.84;99227.28;4220386;28;20043;-67
2024/01/17 02:46:12;;;;;;;30.60;15.90;;;;;;;-1.10;66.58;99215.34;4215044;28;20043;-67
2024/01/17 02:48:15;;;;;;;24.67;14.77;;;;;;;-1.11;66.95;99211.94;4212689;28;20059;-67
2024/01/17 02:50:18;;;;;;;23.20;13.98;;;;;;;-1.16;65.96;99210.84;4211871;28;20055;-67
2024/01/17 02:52:21;;;;;;;27.65;14.80;;;;;;;-1.13;65.75;99213.53;4213125;28;20035;-67
2024/01/17 02:54:24;;;;;;;23.90;14.98;;;;;;;-1.25;66.40;99210.50;4212588;28;20476;-66
2024/01/17 02:56:27;;;;;;;34.17;15.57;;;;;;;-1.31;65.55;99202.59;4213814;28;20061;-67
2024/01/17 02:58:31;;;;;;;24.38;14.00;;;;;;;-1.30;66.91;99201.78;4213693;28;20508;-67
2024/01/17 03:00:34;;;;;;;26.13;14.80;;;;;;;-1.25;66.60;99190.09;4213797;28;20085;-67
2024/01/17 03:02:36;;;;;;;27.73;14.85;;;;;;;-1.23;65.67;99194.47;4211297;28;20032;-67
2024/01/17 03:04:39;;;;;;;20.45;13.73;;;;;;;-1.24;66.17;99185.06;4213724;28;20028;-67
2024/01/17 03:06:43;;;;;;;27.27;14.95;;;;;;;-1.28;65.74;99187.44;4211945;28;20568;-67
2024/01/17 03:08:44;;;;;;;24.55;14.18;;;;;;;-1.33;65.87;99178.69;4197131;28;20339;-66
2024/01/17 03:10:47;;;;;;;26.33;15.20;;;;;;;-1.34;65.67;99180.41;4214292;28;20379;-65
2024/01/17 03:12:50;;;;;;;24.30;12.95;;;;;;;-1.37;66.13;99179.38;4217974;28;20119;-66
2024/01/17 03:14:54;;;;;;;23.85;14.27;;;;;;;-1.33;65.59;99173.59;4213895;28;20073;-66
2024/01/17 03:16:57;;;;;;;20.98;13.57;;;;;;;-1.36;65.84;99171.78;4213800;28;20047;-66
2024/01/17 03:19:00;;;;;;;24.70;13.90;;;;;;;-1.36;65.54;99170.94;4213796;28;20131;-65
2024/01/17 03:21:05;;;;;;;24.23;14.25;;;;;;;-1.47;66.83;99166.28;4220755;28;20067;-66
2024/01/17 03:23:07;;;;;;;23.95;14.95;;;;;;;-1.51;66.77;99166.94;4207521;28;20046;-66
2024/01/17 03:25:10;;;;;;;20.35;13.82;;;;;;;-1.52;67.21;99155.03;4211591;28;20039;-66
2024/01/17 03:27:13;;;;;;;25.35;14.40;;;;;;;-1.49;67.04;99156.81;4203989;28;20059;-66
2024/01/17 03:29:15;;;;;;;24.00;14.93;;;;;;;-1.48;67.30;99146.69;4206116;28;20025;-66
2024/01/17 03:31:20;;;;;;;24.42;13.88;;;;;;;-1.46;66.76;99152.72;4211232;28;20036;-66
2024/01/17 03:37:04;;;;;;;26.08;14.52;;;;;;;-1.55;67.20;99141.28;4213460;28;20059;-66
2024/01/17 03:39:10;;;;;;;23.10;13.88;;;;;;;-1.51;67.52;99138.06;4210714;28;20440;-66
2024/01/17 03:41:13;;;;;;;24.65;14.38;;;;;;;-1.50;67.09;99135.56;4207271;28;20044;-66
2024/01/17 03:43:16;;;;;;;22.65;13.23;;;;;;;-1.44;66.26;99133.25;4213433;28;20516;-66
2024/01/17 03:45:19;;;;;;;26.38;14.45;;;;;;;-1.45;66.12;99125.56;4205400;28;20039;-66
2024/01/17 03:47:24;;;;;;;22.15;14.18;;;;;;;-1.45;66.68;99118.75;4213459;28;20393;-67
2024/01/17 03:49:28;;;;;;;24.00;13.75;;;;;;;-1.55;66.12;99119.19;4207326;28;20037;-66
2024/01/17 03:51:31;;;;;;;22.25;13.40;;;;;;;-1.59;67.26;99119.91;4204379;28;20097;-67
2024/01/17 03:53:34;;;;;;;24.25;12.43;;;;;;;-1.67;67.39;99118.72;4219922;28;20037;-65
2024/01/17 03:55:37;;;;;;;22.10;12.13;;;;;;;-1.73;66.82;99105.72;4224032;28;20056;-67
2024/01/17 03:57:40;;;;;;;24.50;14.45;;;;;;;-1.70;67.01;99098.22;4213077;28;20032;-66
2024/01/17 03:59:43;;;;;;;22.63;13.57;;;;;;;-1.65;67.45;99096.69;4215077;28;20406;-66
2024/01/17 04:01:47;;;;;;;27.38;14.55;;;;;;;-1.61;67.80;99088.38;4210494;28;20444;-66
2024/01/17 04:03:53;;;;;;;24.85;14.98;;;;;;;-1.68;67.11;99081.28;4216497;28;20504;-65
2024/01/17 04:05:56;;;;;;;25.67;13.65;;;;;;;-1.79;66.95;99079.19;4215592;28;20521;-65
2024/01/17 04:07:59;;;;;;;22.80;13.02;;;;;;;-1.80;67.48;99077.44;4215130;28;20043;-66
2024/01/17 04:10:03;;;;;;;24.10;12.85;;;;;;;-1.70;67.42;99071.03;4213974;28;20119;-66
2024/01/17 04:12:08;;;;;;;21.42;13.20;;;;;;;-1.74;67.16;99063.22;4213042;28;20055;-65
2024/01/17 04:14:12;;;;;;;20.85;12.18;;;;;;;-1.78;66.83;99057.16;4195917;28;20474;-65
2024/01/17 04:16:15;;;;;;;21.77;12.70;;;;;;;-1.73;67.46;99053.09;4214191;28;20038;-65
2024/01/17 04:18:19;;;;;;;17.20;11.37;;;;;;;-1.69;67.32;99049.00;4212784;28;20089;-65
2024/01/17 04:20:23;;;;;;;14.77;9.35;;;;;;;-1.86;66.86;99045.75;4216345;28;20282;-65
2024/01/17 04:22:32;;;;;;;21.88;12.55;;;;;;;-1.92;67.75;99035.34;4213499;28;20514;-66
2024/01/17 04:24:35;;;;;;;15.63;10.75;;;;;;;-1.87;67.50;99029.63;4212439;28;20046;-66
2024/01/17 04:26:38;;;;;;;19.60;10.80;;;;;;;-1.88;67.30;99019.34;4213768;28;20040;-66
2024/01/17 04:28:41;;;;;;;21.70;11.73;;;;;;;-1.92;67.74;99014.97;4214450;28;20401;-66
2024/01/17 04:30:44;;;;;;;19.88;11.73;;;;;;;-1.88;67.95;99007.50;4205649;28;20040;-66
2024/01/17 04:32:47;;;;;;;20.77;11.23;;;;;;;-1.79;67.64;99009.53;4212464;28;20474;-66
2024/01/17 04:34:50;;;;;;;19.90;11.50;;;;;;;-1.85;67.15;99009.31;4215995;28;20032;-66
2024/01/17 04:36:55;;;;;;;22.73;11.65;;;;;;;-1.80;67.43;99008.66;4213900;28;20036;-66
2024/01/17 04:39:00;;;;;;;21.92;11.15;;;;;;;-1.80;67.73;99003.56;4228493;28;20585;-66
2024/01/17 04:41:03;;;;;;;16.25;10.35;;;;;;;-1.76;68.41;98995.22;4212594;28;20044;-66
2024/01/17 04:43:06;;;;;;;17.77;11.70;;;;;;;-1.70;67.63;98992.06;4210568;28;20425;-66
2024/01/17 04:45:10;;;;;;;16.38;10.93;;;;;;;-1.58;67.89;98981.47;4213181;28;20518;-66
2024/01/17 04:47:14;;;;;;;17.20;10.15;;;;;;;-1.54;67.73;98970.59;4211094;28;20047;-66
2024/01/17 04:49:17;;;;;;;19.17;10.73;;;;;;;-1.54;67.99;98957.00;4214524;28;20058;-66
2024/01/17 04:51:22;;;;;;;17.70;11.13;;;;;;;-1.48;67.19;98952.97;4209841;28;20135;-66
2024/01/17 04:53:27;;;;;;;20.90;10.77;;;;;;;-1.43;68.00;98954.03;4210697;28;20048;-66
2024/01/17 04:55:30;;;;;;;19.50;11.48;;;;;;;-1.39;66.70;98952.47;4214314;28;20059;-66
2024/01/17 04:57:33;;;;;;;14.82;9.60;;;;;;;-1.37;67.33;98944.88;4215261;28;20043;-66
2024/01/17 04:59:36;;;;;;;20.23;11.25;;;;;;;-1.32;68.04;98943.38;4210203;28;20391;-67
2024/01/17 05:01:39;;;;;;;19.75;11.30;;;;;;;-1.24;67.50;98942.00;4212708;28;20043;-66
2024/01/17 05:03:41;;;;;;;18.83;10.95;;;;;;;-1.29;67.54;98935.84;4214357;28;20071;-66
2024/01/17 05:05:44;;;;;;;16.65;9.60;;;;;;;-1.31;67.79;98929.81;4215495;28;20045;-66
2024/01/17 05:07:48;;;;;;;18.88;11.27;;;;;;;-1.26;68.02;98918.09;4203856;28;20036;-66
2024/01/17 05:09:52;;;;;;;16.52;9.68;;;;;;;-1.21;67.99;98911.50;4206208;28;20036;-65
2024/01/17 05:11:56;;;;;;;15.90;10.20;;;;;;;-1.20;67.21;98903.00;4208965;28;20100;-66
2024/01/17 05:13:59;;;;;;;19.75;10.63;;;;;;;-1.09;67.56;98911.06;4214553;28;20032;-66
2024/01/17 05:16:02;;;;;;;16.23;9.55;;;;;;;-1.08;67.05;98898.38;4210082;28;20126;-66
2024/01/17 05:18:05;;;;;;;17.60;10.55;;;;;;;-1.07;67.75;98900.09;4205077;28;20055;-66
2024/01/17 05:20:09;;;;;;;20.42;10.23;;;;;;;-1.09;67.45;98904.28;4205653;28;20122;-65
2024/01/17 05:22:14;;;;;;;17.40;9.25;;;;;;;-1.13;66.48;98894.78;4222452;28;20032;-66
2024/01/17 05:24:17;;;;;;;;;;;;;;;-1.25;68.21;98889.25;4211999;28;20101;-66
2024/01/17 05:26:21;;;;;;;21.38;10.73;;;;;;;-1.27;68.36;98880.66;4212976;28;19924;-66
2024/01/17 05:28:24;;;;;;;14.55;9.50;;;;;;;-1.25;67.77;98879.06;4210506;28;20081;-66
2024/01/17 05:30:27;;;;;;;18.35;10.35;;;;;;;-1.25;67.16;98876.50;4212919;28;20062;-67
2024/01/17 05:32:30;;;;;;;20.17;11.68;;;;;;;-1.30;67.45;98875.44;4214137;28;20040;-66
2024/01/17 05:34:33;;;;;;;17.38;9.82;;;;;;;-1.24;67.85;98875.69;4214060;28;20040;-66
2024/01/17 05:36:37;;;;;;;20.83;11.05;;;;;;;-1.13;67.40;98859.06;4214971;28;20537;-66
2024/01/17 05:38:40;;;;;;;14.97;9.23;;;;;;;-1.04;67.79;98857.66;4204758;28;20044;-65
2024/01/17 05:40:43;;;;;;;15.65;9.77;;;;;;;-1.03;67.26;98854.31;4209395;28;20036;-67
2024/01/17 05:43:15;;;;;;;16.38;10.43;;;;;;;-1.04;66.62;98853.41;4210051;28;20131;-67
2024/01/17 05:45:17;;;;;;;18.10;9.50;;;;;;;-0.98;66.83;98847.66;4212014;28;20436;-67
2024/01/17 05:47:20;;;;;;;21.27;10.90;;;;;;;-0.98;67.42;98848.56;4208610;28;20464;-67
2024/01/17 05:49:23;;;;;;;18.77;11.18;;;;;;;-0.94;66.81;98844.41;4206866;28;20127;-67
2024/01/17 05:51:27;;;;;;;21.30;11.30;;;;;;;-0.93;67.90;98841.91;4209986;28;20036;-67
2024/01/17 05:53:30;;;;;;;16.85;10.02;;;;;;;-0.86;68.02;98837.91;4207686;28;20048;-66
2024/01/17 05:55:33;;;;;;;19.70;11.32;;;;;;;-0.77;67.42;98833.09;4209737;28;21132;-66
2024/01/17 05:57:36;;;;;;;17.25;10.27;;;;;;;-0.88;68.01;98832.75;4210908;28;20040;-66
2024/01/17 05:59:41;;;;;;;17.48;10.88;;;;;;;-0.86;68.26;98827.69;4211500;28;20032;-66
2024/01/17 06:01:44;;;;;;;16.77;10.40;;;;;;;-0.87;67.55;98828.50;4212315;28;20398;-66
2024/01/17 06:03:47;;;;;;;19.30;11.80;;;;;;;-0.90;68.01;98825.84;4202727;28;20094;-67
2024/01/17 06:05:51;;;;;;;25.90;12.73;;;;;;;-0.92;68.92;98822.34;4212335;28;20414;-66
2024/01/17 06:07:55;;;;;;;23.63;12.48;;;;;;;-0.95;68.66;98812.94;4212975;28;20123;-66
2024/01/17 06:09:57;;;;;;;20.17;12.03;;;;;;;-0.96;68.57;98803.56;4206667;28;20071;-66
2024/01/17 06:12:00;;;;;;;17.88;10.43;;;;;;;-1.03;69.92;98809.25;4212095;28;20340;-66
2024/01/17 06:14:03;;;;;;;19.63;12.32;;;;;;;-1.00;69.31;98799.16;4211294;28;20044;-66
2024/01/17 06:16:08;;;;;;;20.70;11.90;;;;;;;-0.96;69.59;98789.94;4211387;28;20047;-66
2024/01/17 06:18:12;;;;;;;20.33;12.75;;;;;;;-0.96;68.97;98782.28;4211799;28;20047;-66
2024/01/17 06:20:15;;;;;;;;;;;;;;;-1.06;70.69;98781.97;4214479;28;20398;-66
2024/01/17 06:22:18;;;;;;;20.20;12.27;;;;;;;-1.03;69.80;98776.09;4202537;28;19926;-66
2024/01/17 06:24:22;;;;;;;19.75;12.93;;;;;;;-0.99;69.97;98767.75;4206355;28;20032;-66
2024/01/17 06:26:24;;;;;;;19.73;13.07;;;;;;;-1.00;70.04;98768.56;4207801;28;20403;-66
2024/01/17 06:28:27;;;;;;;21.95;12.48;;;;;;;-1.01;70.80;98765.94;4207120;28;20043;-66
2024/01/17 06:30:30;;;;;;;20.27;13.57;;;;;;;-1.02;70.08;98765.09;4207435;28;20044;-66
2024/01/17 06:32:35;;;;;;;22.48;14.10;;;;;;;-1.02;70.77;98759.09;4213738;28;20048;-66
2024/01/17 06:34:38;;;;;;;23.25;14.20;;;;;;;-1.06;71.37;98753.91;4206360;28;20078;-66
2024/01/17 06:36:41;;;;;;;19.65;12.52;;;;;;;-1.07;70.47;98749.66;4211115;28;20130;-67
2024/01/17 06:38:45;;;;;;;22.65;13.15;;;;;;;-1.04;70.30;98740.34;4215007;28;20051;-66
2024/01/17 06:40:48;;;;;;;19.90;12.70;;;;;;;-0.97;71.28;98735.50;4218675;28;20046;-67
2024/01/17 06:42:51;;;;;;;18.90;13.80;;;;;;;-0.88;70.19;98737.47;4215707;28;20119;-66
2024/01/17 06:44:54;;;;;;;22.90;12.77;;;;;;;-0.90;70.29;98721.25;4212711;28;20040;-66
2024/01/17 06:46:57;;;;;;;26.13;15.52;;;;;;;-0.86;71.28;98720.53;4207519;28;20394;-67
2024/01/17 06:49:02;;;;;;;22.15;13.63;;;;;;;-0.89;71.11;98725.56;4213838;28;20478;-66
2024/01/17 06:51:06;;;;;;;19.58;13.07;;;;;;;-0.88;71.79;98706.84;4213722;28;20036;-66
2024/01/17 06:53:09;;;;;;;20.25;13.60;;;;;;;-0.81;70.61;98702.81;4207877;28;20134;-66
2024/01/17 06:55:12;;;;;;;22.92;14.50;;;;;;;-0.76;70.63;98701.28;4213722;28;20508;-66
2024/01/17 06:57:18;;;;;;;22.02;14.35;;;;;;;-0.77;71.93;98697.00;4212193;28;20091;-66
2024/01/17 06:59:21;;;;;;;20.63;14.45;;;;;;;-0.75;71.59;98697.91;4213670;28;20077;-66
2024/01/17 07:01:23;;;;;;;19.75;12.43;;;;;;;-0.74;71.86;98690.28;4212960;28;20038;-66
2024/01/17 07:03:27;;;;;;;22.83;14.35;;;;;;;-0.72;71.46;98686.09;4207388;28;20397;-66
2024/01/17 07:05:31;;;;;;;20.92;13.05;;;;;;;-0.69;70.62;98690.44;4212402;28;20044;-66
2024/01/17 07:07:34;;;;;;;22.45;13.18;;;;;;;-0.84;71.71;98688.28;4210734;28;20036;-67
2024/01/17 07:09:37;;;;;;;20.42;13.07;;;;;;;-0.96;72.41;98683.66;4212395;28;20442;-66
2024/01/17 07:11:40;;;;;;;20.65;13.80;;;;;;;-1.03;72.64;98689.41;4206827;28;20067;-69
2024/01/17 07:13:42;;;;;;;21.25;13.40;;;;;;;-1.04;73.68;98681.69;4202353;28;20376;-69
2024/01/17 07:15:45;;;;;;;20.35;13.32;;;;;;;-1.08;73.94;98684.16;4206471;28;20044;-69
2024/01/17 07:17:48;;;;;;;19.58;12.95;;;;;;;-1.06;74.28;98676.56;4205259;28;20464;-69
2024/01/17 07:19:52;;;;;;;26.83;16.17;;;;;;;-0.97;73.79;98670.88;4207184;28;20036;-70
2024/01/17 07:26:01;;;;;;;26.88;14.13;;;;;;;-0.83;72.74;98650.88;4210841;28;20070;-65
2024/01/17 07:28:05;;;;;;;31.58;15.25;;;;;;;-0.84;72.90;98659.38;4220003;28;20032;-65
2024/01/17 07:30:11;;;;;;;23.10;14.60;;;;;;;-0.81;72.72;98647.56;4211004;28;20039;-65
2024/01/17 07:32:13;;;;;;;22.25;13.82;;;;;;;-0.79;74.21;98639.94;4216619;28;20086;-66
2024/01/17 07:34:16;;;;;;;22.10;15.13;;;;;;;-0.84;74.13;98632.16;4214936;28;20079;-65
2024/01/17 07:36:19;;;;;;;26.02;15.85;;;;;;;-0.81;73.79;98624.59;4206121;28;20059;-65
2024/01/17 07:38:24;;;;;;;20.52;13.45;;;;;;;-0.75;72.89;98619.66;4202753;28;20545;-66
2024/01/17 07:40:27;;;;;;;22.27;14.30;;;;;;;-0.69;73.71;98623.22;4212077;28;20142;-65
2024/01/17 07:42:32;;;;;;;17.90;13.23;;;;;;;-0.65;72.79;98608.06;4211037;28;20036;-65
2024/01/17 07:44:35;;;;;;;24.55;15.88;;;;;;;-0.59;73.83;98608.22;4202593;28;20119;-65
2024/01/17 07:49:41;;;;;;;24.08;16.20;;;;;;;-0.52;72.89;98598.22;4214816;28;20051;-66
2024/01/17 07:51:44;;;;;;;19.75;15.05;;;;;;;-0.54;73.38;98595.59;4185339;28;20052;-65
2024/01/17 07:53:47;;;;;;;27.02;17.15;;;;;;;-0.48;72.79;98592.34;4173798;28;20155;-65
2024/01/17 07:55:50;;;;;;;26.20;15.23;;;;;;;-0.47;72.72;98576.22;4179608;28;20217;-65
2024/01/17 07:57:54;;;;;;;23.52;15.10;;;;;;;-0.50;74.10;98577.00;4180121;28;20529;-65
2024/01/17 07:59:57;;;;;;;21.58;14.43;;;;;;;-0.45;73.56;98575.44;4173264;28;20546;-65
2024/01/17 08:02:02;;;;;;;27.90;16.42;;;;;;;-0.41;73.51;98572.16;4174910;28;20041;-66
2024/01/17 08:04:05;;;;;;;29.10;16.55;;;;;;;-0.36;72.76;98569.72;4169513;28;20491;-65
2024/01/17 08:06:09;;;;;;;22.70;15.77;;;;;;;-0.34;72.96;98560.41;4174815;28;20041;-65
2024/01/17 08:08:12;;;;;;;19.40;14.85;;;;;;;-0.37;72.70;98556.06;4176753;28;20091;-65
2024/01/17 08:10:16;;;;;;;23.02;15.25;;;;;;;-0.43;73.02;98552.50;4172285;28;20056;-65
2024/01/17 08:12:20;;;;;;;21.80;15.25;;;;;;;-0.48;74.02;98560.06;4178202;28;20036;-64
2024/01/17 08:14:24;;;;;;;25.10;16.80;;;;;;;-0.65;74.56;98556.16;4170640;28;20160;-65
2024/01/17 08:16:27;;;;;;;25.02;16.77;;;;;;;-0.69;74.15;98554.34;4173889;28;20109;-65
2024/01/17 08:18:30;;;;;;;28.00;16.75;;;;;;;-0.75;74.32;98555.03;4179793;28;20036;-65
2024/01/17 08:20:32;;;;;;;25.55;17.02;;;;;;;-0.78;74.72;98550.69;4179218;28;20041;-65
2024/01/17 08:22:35;;;;;;;26.73;16.40;;;;;;;-0.78;75.12;98548.16;4176263;28;20163;-65
2024/01/17 08:24:38;;;;;;;23.15;16.63;;;;;;;-0.79;74.81;98543.00;4178947;28;20041;-65
2024/01/17 08:26:41;;;;;;;25.85;17.30;;;;;;;-0.79;75.17;98538.78;4179530;28;20060;-65
2024/01/17 08:28:44;;;;;;;25.35;17.13;;;;;;;-0.82;75.22;98540.38;4170820;28;20072;-65
2024/01/17 08:30:50;;;;;;;24.77;15.98;;;;;;;-0.86;75.84;98534.31;4188076;28;20094;-65
2024/01/17 08:32:53;;;;;;;29.40;18.70;;;;;;;-0.81;76.48;98531.91;4169076;28;20391;-65
2024/01/17 08:34:57;;;;;;;23.48;16.52;;;;;;;-0.74;75.63;98527.00;4175421;28;20453;-65
2024/01/17 08:37:00;;;;;;;28.33;17.77;;;;;;;-0.69;76.01;98524.56;4176305;28;20491;-65
2024/01/17 08:39:05;;;;;;;28.30;18.23;;;;;;;-0.72;75.94;98527.91;4177998;28;20113;-65
2024/01/17 08:41:08;;;;;;;24.58;17.55;;;;;;;-0.88;75.84;98513.00;4178252;28;20388;-65
2024/01/17 08:43:11;;;;;;;30.33;17.98;;;;;;;-0.84;75.58;98513.97;4171057;28;20135;-65
2024/01/17 08:45:15;;;;;;;26.75;18.35;;;;;;;-0.84;76.05;98513.97;4175271;28;20512;-65
2024/01/17 08:47:19;;;;;;;23.40;16.63;;;;;;;-0.80;76.82;98508.97;4174554;28;20076;-65
2024/01/17 08:49:22;;;;;;;28.80;17.30;;;;;;;-0.75;76.67;98502.31;4173520;28;20060;-65
2024/01/17 08:51:26;;;;;;;28.58;17.95;;;;;;;-0.68;76.53;98499.94;4178458;28;20033;-66
2024/01/17 08:53:31;;;;;;;26.92;17.58;;;;;;;-0.64;75.62;98489.84;4180664;28;20125;-65
2024/01/17 08:55:34;;;;;;;27.35;18.25;;;;;;;-0.58;75.25;98481.50;4178861;28;20041;-65
2024/01/17 08:57:37;;;;;;;35.28;19.38;;;;;;;-0.50;75.83;98481.69;4178483;28;20125;-65
2024/01/17 08:59:41;;;;;;;29.98;19.52;;;;;;;-0.46;75.01;98476.72;4177610;28;20033;-65
2024/01/17 09:01:44;;;;;;;29.95;17.33;;;;;;;-0.44;75.56;98469.97;4177685;28;20052;-65
2024/01/17 09:03:47;;;;;;;30.02;17.83;;;;;;;-0.36;75.36;98460.81;4171182;28;20530;-66
2024/01/17 09:05:50;;;;;;;24.92;17.75;;;;;;;-0.35;74.98;98459.13;4179873;28;20495;-65
2024/01/17 09:07:53;;;;;;;27.80;19.63;;;;;;;-0.31;75.09;98449.84;4174801;28;20539;-66
2024/01/17 09:09:56;;;;;;;30.63;19.90;;;;;;;-0.25;74.77;98444.88;4177547;28;20431;-65
2024/01/17 09:11:59;;;;;;;29.10;19.75;;;;;;;-0.25;74.04;98444.88;4179337;28;20037;-65
2024/01/17 09:14:03;;;;;;;29.58;18.98;;;;;;;-0.27;74.83;98433.78;4169934;28;20128;-65
2024/01/17 09:16:06;;;;;;;28.13;19.77;;;;;;;-0.24;74.99;98431.31;4180543;28;20483;-65
2024/01/17 09:18:08;;;;;;;30.65;19.40;;;;;;;-0.10;74.23;98421.41;4175848;28;20041;-65
2024/01/17 09:20:14;;;;;;;28.55;20.05;;;;;;;-0.25;74.87;98434.66;4177891;28;20358;-65
2024/01/17 09:22:18;;;;;;;30.35;21.05;;;;;;;-0.28;75.11;98425.25;4179334;28;20033;-65
2024/01/17 09:24:20;;;;;;;33.97;20.40;;;;;;;-0.23;74.62;98425.38;4176787;28;20041;-66
2024/01/17 09:26:24;;;;;;;26.63;18.40;;;;;;;-0.16;74.94;98417.03;4176296;28;20044;-66
2024/01/17 09:28:27;;;;;;;30.70;21.85;;;;;;;-0.13;74.39;98416.22;4167551;28;20077;-65
2024/01/17 09:30:29;;;;;;;26.40;18.00;;;;;;;-0.11;75.05;98412.88;4179881;28;20041;-65
2024/01/17 09:32:33;;;;;;;28.33;20.80;;;;;;;-0.16;74.31;98406.81;4176925;28;20033;-65
2024/01/17 09:34:36;;;;;;;35.97;25.15;;;;;;;-0.11;74.55;98402.66;4178247;28;20041;-65
2024/01/17 09:36:41;;;;;;;34.60;26.27;;;;;;;-0.11;75.01;98396.72;4177157;28;20216;-65
2024/01/17 09:38:44;;;;;;;28.67;20.50;;;;;;;-0.07;74.94;98389.16;4177438;28;20041;-65
2024/01/17 09:40:49;;;;;;;29.95;21.52;;;;;;;-0.06;75.26;98387.44;4175616;28;20086;-65